createdAt,value
2023-03-26T00:02:03.983Z,100098.06
2023-03-26T00:04:33.622Z,100109.31
2023-03-26T00:07:01.380Z,100099.97
2023-03-26T00:09:29.847Z,100098.44
2023-03-26T00:11:57.701Z,100109.25
2023-03-26T00:14:26.639Z,100078.44
2023-03-26T00:16:54.525Z,100098.22
2023-03-26T00:19:23.587Z,100108.47
2023-03-26T00:21:52.516Z,100124.00
2023-03-26T00:24:20.245Z,100122.25
2023-03-26T00:26:53.483Z,100124.09
2023-03-26T00:29:22.871Z,100120.09
2023-03-26T00:31:50.661Z,100121.09
2023-03-26T00:34:18.885Z,100131.41
2023-03-26T00:36:47.974Z,100128.91
2023-03-26T00:39:17.695Z,100138.28
2023-03-26T00:41:45.485Z,100136.66
2023-03-26T00:44:13.299Z,100133.28
2023-03-26T00:46:41.278Z,100136.34
2023-03-26T00:49:10.841Z,100141.44
2023-03-26T00:51:39.216Z,100149.97
2023-03-26T00:54:09.153Z,100152.38
2023-03-26T00:56:37.206Z,100155.38
2023-03-26T00:59:05.390Z,100154.94
2023-03-26T01:01:33.359Z,100171.59
2023-03-26T01:04:24.119Z,100180.06
2023-03-26T01:06:52.113Z,100166.75
2023-03-26T01:09:26.329Z,100169.88
2023-03-26T01:11:54.087Z,100169.19
2023-03-26T01:14:24.484Z,100147.59
2023-03-26T01:16:54.824Z,100195.53
2023-03-26T01:19:30.271Z,100181.22
2023-03-26T01:21:59.177Z,100174.00
2023-03-26T01:24:28.299Z,100193.09
2023-03-26T01:27:11.198Z,100191.47
2023-03-26T01:29:45.390Z,100202.59
2023-03-26T01:32:23.394Z,100197.66
2023-03-26T01:35:01.613Z,100189.69
2023-03-26T01:37:38.421Z,100200.53
2023-03-26T01:40:16.173Z,100193.06
2023-03-26T01:42:49.136Z,100197.44
2023-03-26T01:45:19.147Z,100194.00
2023-03-26T01:47:48.222Z,100202.72
2023-03-26T01:50:16.176Z,100195.78
2023-03-26T01:52:43.851Z,100189.28
2023-03-26T01:55:14.390Z,100200.00
2023-03-26T01:57:53.277Z,100199.50
2023-03-26T02:00:29.079Z,100201.47
2023-03-26T02:03:18.121Z,100202.72
2023-03-26T02:05:54.286Z,100201.28
2023-03-26T02:08:25.310Z,100201.97
2023-03-26T02:10:58.516Z,100197.69
2023-03-26T02:13:27.197Z,100188.47
2023-03-26T02:15:59.909Z,100191.34
2023-03-26T02:18:36.123Z,100194.97
2023-03-26T02:21:06.299Z,100132.81
2023-03-26T02:23:38.444Z,100190.47
2023-03-26T02:26:09.750Z,100200.00
2023-03-26T02:28:37.547Z,100204.25
2023-03-26T02:31:05.869Z,100203.34
2023-03-26T02:33:33.662Z,100200.22
2023-03-26T02:36:02.049Z,100192.50
2023-03-26T02:38:30.453Z,100202.94
2023-03-26T02:40:58.724Z,100199.31
2023-03-26T02:43:27.994Z,100202.94
2023-03-26T02:45:56.267Z,100206.09
2023-03-26T02:48:24.328Z,100204.91
2023-03-26T02:50:54.286Z,100201.28
2023-03-26T02:53:24.146Z,100196.78
2023-03-26T02:55:52.241Z,100209.91
2023-03-26T02:58:20.153Z,100200.31
2023-03-26T03:00:50.873Z,100206.09
2023-03-26T03:03:18.606Z,100194.03
2023-03-26T03:05:46.339Z,100202.47
2023-03-26T03:08:14.006Z,100200.28
2023-03-26T03:10:42.439Z,100207.03
2023-03-26T03:13:10.256Z,100195.97
2023-03-26T03:15:37.986Z,100193.88
2023-03-26T03:18:07.553Z,100193.97
2023-03-26T03:20:35.786Z,100184.94
2023-03-26T03:23:03.436Z,100190.28
2023-03-26T03:25:32.532Z,100181.41
2023-03-26T03:28:00.226Z,100149.63
2023-03-26T03:30:27.960Z,100203.22
2023-03-26T03:32:58.348Z,100199.16
2023-03-26T03:35:27.892Z,100169.66
2023-03-26T03:37:55.668Z,100191.75
2023-03-26T03:40:23.380Z,100189.75
2023-03-26T03:42:51.510Z,100190.47
2023-03-26T03:45:20.342Z,100183.25
2023-03-26T03:47:48.313Z,100186.56
2023-03-26T03:50:16.179Z,100194.22
2023-03-26T03:52:45.532Z,100199.94
2023-03-26T03:55:14.009Z,100199.03
2023-03-26T03:57:42.069Z,100196.19
2023-03-26T04:00:11.789Z,100182.19
2023-03-26T04:02:42.885Z,100189.81
2023-03-26T04:05:11.693Z,100187.94
2023-03-26T04:07:39.714Z,100189.81
2023-03-26T04:10:10.888Z,100173.16
2023-03-26T04:12:38.595Z,100204.47
2023-03-26T04:15:07.299Z,100199.59
2023-03-26T04:17:42.326Z,100196.75
2023-03-26T04:20:14.702Z,100194.41
2023-03-26T04:22:43.601Z,100195.06
2023-03-26T04:25:15.509Z,100183.94
2023-03-26T04:27:44.064Z,100178.47
2023-03-26T04:30:16.094Z,100178.47
2023-03-26T04:32:44.702Z,100187.88
2023-03-26T04:35:16.404Z,100174.25
2023-03-26T04:37:46.264Z,100187.56
2023-03-26T04:40:19.383Z,100172.53
2023-03-26T04:42:47.316Z,100183.69
2023-03-26T04:45:17.588Z,100176.84
2023-03-26T04:47:46.544Z,100170.72
2023-03-26T04:50:14.602Z,100174.75
2023-03-26T04:52:45.108Z,100175.69
2023-03-26T04:55:23.149Z,100176.13
2023-03-26T04:57:54.787Z,100172.50
2023-03-26T05:00:22.731Z,100180.75
2023-03-26T05:02:51.082Z,100184.13
2023-03-26T05:05:19.208Z,100169.94
2023-03-26T05:07:46.908Z,100176.84
2023-03-26T05:10:17.754Z,100184.22
2023-03-26T05:12:45.854Z,100189.28
2023-03-26T05:15:14.225Z,100189.16
2023-03-26T05:17:42.401Z,100185.84
2023-03-26T05:20:18.297Z,100179.34
2023-03-26T05:22:45.969Z,100156.88
2023-03-26T05:25:13.666Z,100186.00
2023-03-26T05:27:42.712Z,100185.63
2023-03-26T05:30:10.880Z,100183.88
2023-03-26T05:32:38.643Z,100191.88
2023-03-26T05:35:07.561Z,100183.06
2023-03-26T05:37:35.529Z,100185.34
2023-03-26T05:40:04.114Z,100188.66
2023-03-26T05:42:31.796Z,100200.16
2023-03-26T05:45:00.839Z,100172.31
2023-03-26T05:47:28.571Z,100196.47
2023-03-26T05:49:56.272Z,100191.84
2023-03-26T05:52:23.922Z,100192.59
2023-03-26T05:54:51.583Z,100193.72
2023-03-26T05:57:19.552Z,100194.72
2023-03-26T05:59:47.241Z,100191.72
2023-03-26T06:02:16.427Z,100194.63
2023-03-26T06:04:45.779Z,100201.53
2023-03-26T06:07:13.737Z,100199.75
2023-03-26T06:09:41.525Z,100200.50
2023-03-26T06:12:10.956Z,100203.09
2023-03-26T06:14:38.809Z,100202.13
2023-03-26T06:17:06.583Z,100202.16
2023-03-26T06:19:35.616Z,100202.13
2023-03-26T06:22:03.258Z,100203.22
2023-03-26T06:24:31.174Z,100200.94
2023-03-26T06:26:58.872Z,100203.72
2023-03-26T06:29:26.987Z,100194.44
2023-03-26T06:31:54.722Z,100203.50
2023-03-26T06:34:22.716Z,100212.44
2023-03-26T06:36:52.682Z,100206.63
2023-03-26T06:39:20.740Z,100208.13
2023-03-26T06:41:48.433Z,100215.44
2023-03-26T06:44:16.295Z,100218.34
2023-03-26T06:46:44.042Z,100209.22
2023-03-26T06:49:11.749Z,100211.66
2023-03-26T06:51:41.159Z,100210.47
2023-03-26T06:54:10.646Z,100219.34
2023-03-26T06:56:38.367Z,100219.56
2023-03-26T06:59:06.107Z,100219.44
2023-03-26T07:01:33.937Z,100206.22
2023-03-26T07:04:01.622Z,100226.31
2023-03-26T07:06:29.323Z,100225.63
2023-03-26T07:08:57.493Z,100218.50
2023-03-26T07:11:27.087Z,100203.41
2023-03-26T07:13:56.263Z,100229.34
2023-03-26T07:16:24.041Z,100225.03
2023-03-26T07:18:52.058Z,100225.31
2023-03-26T07:21:21.598Z,100222.72
2023-03-26T07:23:50.318Z,100225.91
2023-03-26T07:26:32.126Z,100217.91
2023-03-26T07:29:10.438Z,100218.50
2023-03-26T07:31:44.745Z,100228.22
2023-03-26T07:34:27.032Z,100204.63
2023-03-26T07:36:59.726Z,100207.50
2023-03-26T07:39:40.556Z,100211.94
2023-03-26T07:42:31.149Z,100206.56
2023-03-26T07:45:04.155Z,100219.22
2023-03-26T07:47:35.102Z,100216.13
2023-03-26T07:50:03.427Z,100205.22
2023-03-26T07:52:31.584Z,100216.25
2023-03-26T07:54:59.831Z,100216.19
2023-03-26T07:57:39.745Z,100207.88
2023-03-26T08:00:15.154Z,100205.75
2023-03-26T08:03:11.803Z,100198.38
2023-03-26T08:05:44.486Z,100203.69
2023-03-26T08:08:19.642Z,100184.53
2023-03-26T08:11:01.030Z,100206.50
2023-03-26T08:13:36.021Z,100207.09
2023-03-26T08:16:11.096Z,100154.88
2023-03-26T08:18:46.656Z,100195.88
2023-03-26T08:21:18.569Z,100195.06
2023-03-26T08:23:57.606Z,100207.25
2023-03-26T08:26:35.340Z,100201.78
2023-03-26T08:29:17.243Z,100192.38
2023-03-26T08:31:47.657Z,100204.88
2023-03-26T08:34:15.509Z,100203.72
2023-03-26T08:36:43.248Z,100200.59
2023-03-26T08:39:10.970Z,100200.44
2023-03-26T08:42:08.732Z,100204.88
2023-03-26T08:45:04.393Z,100205.56
2023-03-26T08:47:59.122Z,100203.13
2023-03-26T08:51:07.655Z,100148.50
2023-03-26T08:54:15.670Z,100204.50
2023-03-26T08:56:52.615Z,100211.72
2023-03-26T09:00:13.561Z,100206.31
2023-03-26T09:03:09.182Z,100199.44
2023-03-26T09:06:18.411Z,100191.72
2023-03-26T09:09:19.567Z,100195.78
2023-03-26T09:12:20.444Z,100194.06
2023-03-26T09:15:29.554Z,100193.66
2023-03-26T09:18:29.859Z,100190.22
2023-03-26T09:21:33.168Z,100199.56
2023-03-26T09:24:36.267Z,100185.13
2023-03-26T09:27:16.976Z,100201.44
2023-03-26T09:30:20.559Z,100202.28
2023-03-26T09:33:19.510Z,100198.13
2023-03-26T09:35:54.132Z,100197.03
2023-03-26T09:38:42.625Z,100200.09
2023-03-26T09:41:18.377Z,100197.00
2023-03-26T09:44:27.393Z,100196.50
2023-03-26T09:47:11.895Z,100196.34
2023-03-26T09:49:48.644Z,100199.84
2023-03-26T09:52:41.774Z,100205.22
2023-03-26T09:55:38.553Z,100173.59
2023-03-26T09:58:22.282Z,100200.88
2023-03-26T10:01:00.939Z,100208.81
2023-03-26T10:03:40.881Z,100197.56
2023-03-26T10:06:28.644Z,100212.13
2023-03-26T10:09:18.997Z,100208.84
2023-03-26T10:12:03.115Z,100208.19
2023-03-26T10:14:40.164Z,100209.25
2023-03-26T10:17:25.413Z,100209.22
2023-03-26T10:20:08.741Z,100212.69
2023-03-26T10:22:54.510Z,100211.56
2023-03-26T10:25:42.114Z,100211.16
2023-03-26T10:28:36.864Z,100215.94
2023-03-26T10:31:36.274Z,100218.34
2023-03-26T10:34:28.919Z,100204.03
2023-03-26T10:37:09.295Z,100199.03
2023-03-26T10:40:08.265Z,100201.28
2023-03-26T10:43:01.003Z,100204.56
2023-03-26T10:45:41.065Z,100202.25
2023-03-26T10:48:28.752Z,100188.34
2023-03-26T10:51:15.464Z,100191.47
2023-03-26T10:53:47.840Z,100185.84
2023-03-26T10:56:24.452Z,100190.41
2023-03-26T10:58:52.446Z,100195.00
2023-03-26T11:01:28.757Z,100184.16
2023-03-26T11:03:57.218Z,100191.06
2023-03-26T11:06:35.513Z,100205.22
2023-03-26T11:09:12.225Z,100210.44
2023-03-26T11:11:48.984Z,100208.75
2023-03-26T11:14:33.761Z,100208.94
2023-03-26T11:17:14.454Z,100205.41
2023-03-26T11:20:05.892Z,100202.00
2023-03-26T11:22:45.076Z,100191.63
2023-03-26T11:25:36.879Z,100199.75
2023-03-26T11:28:17.702Z,100203.06
2023-03-26T11:30:49.613Z,100203.25
2023-03-26T11:33:21.758Z,100207.91
2023-03-26T11:35:52.519Z,100211.97
2023-03-26T11:38:25.676Z,100212.38
2023-03-26T11:40:56.043Z,100201.84
2023-03-26T11:43:29.184Z,100207.72
2023-03-26T11:45:57.615Z,100208.56
2023-03-26T11:48:29.278Z,100203.72
2023-03-26T11:51:02.931Z,100192.78
2023-03-26T11:53:34.556Z,100206.53
2023-03-26T11:56:05.751Z,100200.47
2023-03-26T11:58:39.939Z,100204.28
2023-03-26T12:01:15.782Z,100208.22
2023-03-26T12:03:44.205Z,100207.44
2023-03-26T12:06:25.569Z,100199.44
2023-03-26T12:08:54.936Z,100204.53
2023-03-26T12:11:28.165Z,100201.63
2023-03-26T12:14:01.875Z,100171.13
2023-03-26T12:16:29.689Z,100203.41
2023-03-26T12:19:03.827Z,100196.44
2023-03-26T12:21:31.543Z,100203.75
2023-03-26T12:24:01.342Z,100200.09
2023-03-26T12:26:46.916Z,100215.16
2023-03-26T12:29:17.443Z,100215.56
2023-03-26T12:31:52.248Z,100213.38
2023-03-26T12:34:22.148Z,100196.44
2023-03-26T12:36:53.053Z,100218.63
2023-03-26T12:40:08.087Z,100209.66
2023-03-26T12:44:49.857Z,100216.31
2023-03-26T12:45:22.383Z,100187.66
2023-03-26T12:48:02.502Z,100224.19
2023-03-26T12:50:46.167Z,100230.63
2023-03-26T12:53:40.895Z,100226.59
2023-03-26T12:56:21.556Z,100189.53
2023-03-26T12:59:23.489Z,100225.59
2023-03-26T13:02:01.392Z,100207.00
2023-03-26T13:05:04.406Z,100223.91
2023-03-26T13:07:47.871Z,100216.03
2023-03-26T13:10:49.429Z,100211.47
2023-03-26T13:13:52.056Z,100222.53
2023-03-26T13:16:30.981Z,100221.41
2023-03-26T13:19:05.284Z,100211.28
2023-03-26T13:21:45.990Z,100214.09
2023-03-26T13:24:26.456Z,100217.69
2023-03-26T13:27:05.582Z,100221.13
2023-03-26T13:29:41.690Z,100213.66
2023-03-26T13:32:17.544Z,100208.72
2023-03-26T13:35:01.975Z,100220.72
2023-03-26T13:37:35.718Z,100206.41
2023-03-26T13:40:18.015Z,100192.47
2023-03-26T13:42:57.543Z,100218.25
2023-03-26T13:45:41.770Z,100206.50
2023-03-26T13:48:17.371Z,100203.91
2023-03-26T13:50:57.179Z,100204.59
2023-03-26T13:53:29.270Z,100213.84
2023-03-26T13:56:00.244Z,100213.25
2023-03-26T13:58:36.283Z,100214.38
2023-03-26T14:01:09.356Z,100209.19
2023-03-26T14:03:48.035Z,100206.50
2023-03-26T14:06:29.413Z,100216.44
2023-03-26T14:09:02.672Z,100222.09
2023-03-26T14:11:43.702Z,100213.56
2023-03-26T14:14:15.094Z,100224.84
2023-03-26T14:16:48.083Z,100218.91
2023-03-26T14:19:36.002Z,100220.97
2023-03-26T14:22:18.879Z,100209.44
2023-03-26T14:25:02.711Z,100225.19
2023-03-26T14:27:41.669Z,100210.25
2023-03-26T14:30:28.512Z,100229.47
2023-03-26T14:33:13.740Z,100223.91
2023-03-26T14:35:50.222Z,100218.31
2023-03-26T14:38:41.716Z,100185.06
2023-03-26T14:41:24.236Z,100229.00
2023-03-26T14:44:24.947Z,100225.25
2023-03-26T14:47:08.224Z,100219.03
2023-03-26T14:49:51.818Z,100233.88
2023-03-26T14:52:30.728Z,100228.22
2023-03-26T14:55:04.973Z,100239.72
2023-03-26T14:57:56.844Z,100241.53
2023-03-26T15:01:04.328Z,100230.56
2023-03-26T15:04:08.148Z,100236.28
2023-03-26T15:07:04.251Z,100226.44
2023-03-26T15:10:22.596Z,100241.81
2023-03-26T15:13:06.386Z,100212.28
2023-03-26T15:16:04.485Z,100234.34
2023-03-26T15:18:53.757Z,100246.97
2023-03-26T15:21:58.714Z,100239.97
2023-03-26T15:25:08.179Z,100243.03
2023-03-26T15:27:54.680Z,100240.63
2023-03-26T15:31:16.563Z,100235.28
2023-03-26T15:34:20.010Z,100243.53
2023-03-26T15:37:18.714Z,100247.47
2023-03-26T15:40:19.880Z,100254.47
2023-03-26T15:43:01.633Z,100257.47
2023-03-26T15:45:36.470Z,100257.56
2023-03-26T15:48:39.553Z,100247.09
2023-03-26T15:51:22.379Z,100238.81
2023-03-26T15:53:56.226Z,100258.78
2023-03-26T15:56:49.187Z,100269.56
2023-03-26T15:59:34.888Z,100272.63
2023-03-26T16:02:16.259Z,100279.59
2023-03-26T16:04:51.882Z,100279.31
2023-03-26T16:07:41.288Z,100280.53
2023-03-26T16:10:29.203Z,100228.00
2023-03-26T16:13:36.143Z,100279.97
2023-03-26T16:16:45.949Z,100272.88
2023-03-26T16:19:40.975Z,100289.16
2023-03-26T16:22:15.944Z,100276.84
2023-03-26T16:24:47.632Z,100273.69
2023-03-26T16:27:35.115Z,100283.28
2023-03-26T16:30:27.378Z,100283.03
2023-03-26T16:32:58.716Z,100245.97
2023-03-26T16:35:56.918Z,100288.09
2023-03-26T16:38:27.295Z,100280.97
2023-03-26T16:41:02.201Z,100239.44
2023-03-26T16:43:47.783Z,100301.69
2023-03-26T16:46:29.659Z,100300.13
2023-03-26T16:49:04.720Z,100305.22
2023-03-26T16:51:50.760Z,100309.84
2023-03-26T16:54:27.588Z,100303.78
2023-03-26T16:57:01.835Z,100323.81
2023-03-26T16:59:43.978Z,100323.22
2023-03-26T17:02:21.761Z,100329.59
2023-03-26T17:04:54.751Z,100336.88
2023-03-26T17:07:36.085Z,100348.69
2023-03-26T17:10:16.018Z,100344.81
2023-03-26T17:12:50.356Z,100351.97
2023-03-26T17:15:33.366Z,100353.38
2023-03-26T17:18:25.474Z,100355.88
2023-03-26T17:21:02.130Z,100344.78
2023-03-26T17:23:48.035Z,100363.75
2023-03-26T17:26:25.338Z,100357.31
2023-03-26T17:29:10.484Z,100356.38
2023-03-26T17:31:44.364Z,100371.41
2023-03-26T17:34:34.475Z,100373.84
2023-03-26T17:37:05.745Z,100375.13
2023-03-26T17:40:37.888Z,100380.91
2023-03-26T17:43:11.138Z,100387.75
2023-03-26T17:45:40.484Z,100385.22
2023-03-26T17:48:16.629Z,100400.06
2023-03-26T17:50:51.824Z,100405.19
2023-03-26T17:53:25.031Z,100403.19
2023-03-26T17:55:56.372Z,100393.41
2023-03-26T17:58:29.067Z,100424.75
2023-03-26T18:01:06.757Z,100420.03
2023-03-26T18:03:40.898Z,100429.38
2023-03-26T18:06:12.130Z,100427.72
2023-03-26T18:08:50.748Z,100433.13
2023-03-26T18:11:51.003Z,100415.25
2023-03-26T18:14:48.194Z,100362.31
2023-03-26T18:17:16.500Z,100461.00
2023-03-26T18:19:49.782Z,100382.53
2023-03-26T18:22:22.953Z,100465.56
2023-03-26T18:24:51.802Z,100463.88
2023-03-26T18:27:23.404Z,100458.31
2023-03-26T18:30:03.030Z,100471.97
2023-03-26T18:32:33.513Z,100482.06
2023-03-26T18:35:14.334Z,100481.31
2023-03-26T18:37:46.033Z,100478.94
2023-03-26T18:40:19.117Z,100475.28
2023-03-26T18:42:51.930Z,100467.72
2023-03-26T18:45:26.429Z,100484.44
2023-03-26T18:47:56.722Z,100502.38
2023-03-26T18:50:31.843Z,100505.81
2023-03-26T18:53:01.156Z,100446.22
2023-03-26T18:55:30.758Z,100512.00
2023-03-26T18:57:59.911Z,100510.19
2023-03-26T19:00:30.348Z,100515.66
2023-03-26T19:03:04.550Z,100513.19
2023-03-26T19:05:34.686Z,100494.28
2023-03-26T19:08:04.832Z,100524.16
2023-03-26T19:10:34.168Z,100523.22
2023-03-26T19:13:04.334Z,100539.66
2023-03-26T19:15:34.348Z,100530.53
2023-03-26T19:18:07.293Z,100525.41
2023-03-26T19:20:41.629Z,100549.84
2023-03-26T19:23:14.698Z,100531.84
2023-03-26T19:25:47.457Z,100501.28
2023-03-26T19:28:20.669Z,100533.75
2023-03-26T19:30:53.351Z,100527.03
2023-03-26T19:33:22.472Z,100543.50
2023-03-26T19:35:55.456Z,100546.16
2023-03-26T19:38:27.093Z,100548.91
2023-03-26T19:40:57.523Z,100560.72
2023-03-26T19:43:27.613Z,100556.41
2023-03-26T19:46:00.266Z,100558.41
2023-03-26T19:48:46.197Z,100566.66
2023-03-26T19:51:22.632Z,100573.38
2023-03-26T19:53:54.220Z,100566.78
2023-03-26T19:56:23.217Z,100573.25
2023-03-26T19:58:52.465Z,100568.38
2023-03-26T20:01:22.852Z,100559.91
2023-03-26T20:03:52.770Z,100579.63
2023-03-26T20:06:30.733Z,100544.41
2023-03-26T20:09:04.640Z,100578.53
2023-03-26T20:11:34.335Z,100527.34
2023-03-26T20:14:08.150Z,100593.91
2023-03-26T20:16:36.059Z,100589.19
2023-03-26T20:19:04.413Z,100593.97
2023-03-26T20:21:34.631Z,100601.00
2023-03-26T20:24:02.943Z,100588.31
2023-03-26T20:26:30.653Z,100603.13
2023-03-26T20:28:58.904Z,100558.78
2023-03-26T20:31:28.638Z,100609.75
2023-03-26T20:33:56.452Z,100609.22
2023-03-26T20:36:34.059Z,100612.69
2023-03-26T20:39:05.809Z,100620.19
2023-03-26T20:41:34.335Z,100618.63
2023-03-26T20:44:05.691Z,100623.09
2023-03-26T20:46:34.852Z,100632.19
2023-03-26T20:49:02.590Z,100631.56
2023-03-26T20:51:30.260Z,100641.53
2023-03-26T20:53:58.004Z,100621.41
2023-03-26T20:56:25.818Z,100636.59
2023-03-26T20:59:09.823Z,100641.78
2023-03-26T21:01:39.972Z,100641.94
2023-03-26T21:04:07.910Z,100648.72
2023-03-26T21:06:35.825Z,100656.34
2023-03-26T21:09:04.129Z,100653.09
2023-03-26T21:11:45.352Z,100661.47
2023-03-26T21:14:20.857Z,100671.13
2023-03-26T21:16:50.838Z,100643.09
2023-03-26T21:19:19.194Z,100685.81
2023-03-26T21:21:59.451Z,100680.69
2023-03-26T21:24:45.104Z,100683.88
2023-03-26T21:27:22.273Z,100663.47
2023-03-26T21:29:50.412Z,100690.91
2023-03-26T21:32:20.347Z,100695.75
2023-03-26T21:34:58.098Z,100687.94
2023-03-26T21:37:27.916Z,100696.84
2023-03-26T21:39:56.109Z,100699.41
2023-03-26T21:42:26.858Z,100709.56
2023-03-26T21:44:55.104Z,100715.53
2023-03-26T21:47:24.700Z,100713.19
2023-03-26T21:49:54.650Z,100719.16
2023-03-26T21:52:23.916Z,100728.72
2023-03-26T21:54:52.510Z,100738.03
2023-03-26T21:57:40.515Z,100728.69
2023-03-26T22:00:15.198Z,100745.78
2023-03-26T22:02:57.256Z,100747.50
2023-03-26T22:05:32.781Z,100750.09
2023-03-26T22:08:02.925Z,100752.66
2023-03-26T22:10:32.030Z,100762.94
2023-03-26T22:12:59.932Z,100713.31
2023-03-26T22:15:30.586Z,100776.66
2023-03-26T22:18:02.378Z,100774.94
2023-03-26T22:20:30.440Z,100744.09
2023-03-26T22:22:59.679Z,100779.19
2023-03-26T22:25:27.607Z,100775.78
2023-03-26T22:27:55.404Z,100786.06
2023-03-26T22:30:23.145Z,100790.34
2023-03-26T22:32:51.732Z,100749.28
2023-03-26T22:35:21.077Z,100803.19
2023-03-26T22:37:48.966Z,100801.50
2023-03-26T22:40:17.897Z,100805.75
2023-03-26T22:42:45.735Z,100816.91
2023-03-26T22:45:13.747Z,100816.88
2023-03-26T22:47:41.536Z,100788.63
2023-03-26T22:50:10.754Z,100821.19
2023-03-26T22:52:40.755Z,100825.44
2023-03-26T22:55:11.002Z,100824.53
2023-03-26T22:57:39.051Z,100839.09
2023-03-26T23:00:16.117Z,100813.41
2023-03-26T23:02:45.768Z,100847.69
2023-03-26T23:05:14.128Z,100854.56
2023-03-26T23:07:43.588Z,100859.72
2023-03-26T23:10:12.150Z,100859.69
2023-03-26T23:12:40.339Z,100819.44
2023-03-26T23:15:09.924Z,100869.97
2023-03-26T23:17:38.953Z,100861.41
2023-03-26T23:20:14.624Z,100859.69
2023-03-26T23:22:44.760Z,100868.25
2023-03-26T23:25:13.636Z,100880.25
2023-03-26T23:27:41.587Z,100874.28
2023-03-26T23:30:11.796Z,100876.81
2023-03-26T23:32:40.655Z,100875.97
2023-03-26T23:35:09.034Z,100881.97
2023-03-26T23:37:36.694Z,100880.22
2023-03-26T23:40:10.003Z,100897.38
2023-03-26T23:42:38.416Z,100899.97
2023-03-26T23:45:08.425Z,100897.31
2023-03-26T23:47:37.280Z,100902.50
2023-03-26T23:50:05.890Z,100904.13
2023-03-26T23:52:33.738Z,100911.84
2023-03-26T23:55:01.454Z,100920.38
2023-03-26T23:57:31.886Z,100910.97
2023-03-26T23:59:59.653Z,100919.59
